Time;durP1;ratioP1;P1;durP2;ratioP2;P2;SDS_P1;SDS_P2;PMS_P1;PMS_P2;Temp;Humidity;BMP_temperature;BMP_pressure;BME280_temperature;BME280_humidity;BME280_pressure;Samples;Min_cycle;Max_cycle;Signal;HPM_P1;HPM_P2
2022/08/15 00:00:52;;;;;;;;;;;;;;;20.20;60.87;99509.69;5113236;28;19918;-67
2022/08/15 00:03:57;;;;;;;;;;;;;;;20.25;60.92;99505.69;5113052;28;20432;-68
2022/08/15 00:07:04;;;;;;;;;;;;;;;20.24;60.33;99498.75;5113028;28;19956;-67
2022/08/15 00:10:08;;;;;;;;;;;;;;;20.36;59.68;99505.38;5113030;28;19918;-67
2022/08/15 00:13:20;;;;;;;;;;;;;;;20.33;59.75;99500.38;5112772;28;20156;-67
2022/08/15 00:16:24;;;;;;;;;;;;;;;20.27;59.85;99501.06;5112836;28;19995;-67
2022/08/15 00:19:31;;;;;;;;;;;;;;;20.28;60.50;99502.72;5113228;28;19938;-67
2022/08/15 00:22:34;;;;;;;;;;;;;;;20.26;61.13;99494.94;5112855;28;19986;-67
2022/08/15 00:25:37;;;;;;;;;;;;;;;20.28;61.41;99500.06;5112715;28;19950;-67
2022/08/15 00:28:40;;;;;;;;;;;;;;;20.15;61.74;99492.59;5112557;28;19963;-68
2022/08/15 00:31:44;;;;;;;;;;;;;;;20.21;61.40;99492.75;5100140;28;19923;-67
2022/08/15 00:34:48;;;;;;;;;;;;;;;20.18;61.04;99484.31;5112658;28;19957;-67
2022/08/15 00:37:55;;;;;;;;;;;;;;;20.12;61.78;99490.28;5112824;28;19964;-67
2022/08/15 00:44:23;;;;;;;;;;;;;;;20.17;61.97;99486.13;5112480;28;20065;-68
2022/08/15 00:48:41;;;;;;;;;;;;;;;20.12;62.29;99488.44;5112855;28;20038;-67
2022/08/15 00:51:11;;;;;;;;;;;;;;;20.32;61.32;99480.13;5112605;28;19918;-67
2022/08/15 00:54:15;;;;;;;;;;;;;;;20.21;61.07;99476.84;5112861;28;19918;-68
2022/08/15 00:57:37;;;;;;;;;;;;;;;20.25;60.54;99476.50;5112420;28;19926;-68
2022/08/15 01:00:42;;;;;;;;;;;;;;;20.44;59.41;99460.19;5112522;28;19934;-67
2022/08/15 01:03:47;;;;;;;;;;;;;;;20.28;60.13;99470.84;5112526;28;20338;-67
2022/08/15 01:06:58;;;;;;;;;;;;;;;20.33;60.40;99473.84;5112890;28;20430;-67
2022/08/15 01:10:01;;;;;;;;;;;;;;;20.18;60.95;99479.81;5099895;28;20089;-68
2022/08/15 01:13:05;;;;;;;;;;;;;;;20.12;61.33;99477.00;5099697;28;19918;-67
2022/08/15 01:16:08;;;;;;;;;;;;;;;20.10;61.50;99479.84;5112566;28;19962;-68
2022/08/15 01:19:22;;;;;;;;;;;;;;;20.07;61.79;99488.13;5099840;28;19918;-67
2022/08/15 01:22:36;;;;;;;;;;;;;;;20.18;61.43;99486.97;5087780;28;19968;-67
2022/08/15 01:25:57;;;;;;;;;;;;;;;20.25;61.27;99489.78;5099472;28;19965;-68
2022/08/15 01:29:00;;;;;;;;;;;;;;;20.35;59.25;99490.41;5099933;28;20296;-68
2022/08/15 01:32:04;;;;;;;;;;;;;;;20.34;59.43;99488.75;5099574;28;19934;-67
2022/08/15 01:35:07;;;;;;;;;;;;;;;20.25;60.76;99479.16;5099608;28;20315;-67
2022/08/15 01:38:31;;;;;;;;;;;;;;;20.32;60.05;99474.81;5112272;28;19954;-67
2022/08/15 01:41:39;;;;;;;;;;;;;;;20.26;60.18;99478.16;5114503;28;20335;-67
2022/08/15 01:44:42;;;;;;;;;;;;;;;20.30;60.34;99474.19;5115486;28;19923;-67
2022/08/15 01:47:52;;;;;;;;;;;;;;;20.13;61.19;99468.03;5103120;28;19955;-67
2022/08/15 01:51:00;;;;;;;;;;;;;;;19.91;61.95;99462.44;5103386;28;19919;-67
2022/08/15 01:54:12;;;;;;;;;;;;;;;20.23;60.70;99452.78;5102664;28;19923;-67
2022/08/15 01:57:21;;;;;;;;;;;;;;;20.25;59.33;99434.03;5115436;28;20326;-67
2022/08/15 02:00:26;;;;;;;;;;;;;;;20.18;60.44;99417.94;5102705;28;19956;-67
2022/08/15 02:03:35;;;;;;;;;;;;;;;20.24;61.32;99422.59;5115232;28;19922;-67
2022/08/15 02:06:42;;;;;;;;;;;;;;;20.15;62.82;99432.38;5091058;28;19919;-67
2022/08/15 02:09:49;;;;;;;;;;;;;;;19.80;63.87;99435.41;5102567;28;19958;-67
2022/08/15 02:12:57;;;;;;;;;;;;;;;19.97;62.73;99427.28;5102610;28;19918;-67
2022/08/15 02:16:01;;;;;;;;;;;;;;;20.12;62.03;99430.06;5102504;28;19918;-68
2022/08/15 02:19:07;;;;;;;;;;;;;;;20.06;62.15;99441.34;5115105;28;19965;-68
2022/08/15 02:22:12;;;;;;;;;;;;;;;20.25;61.25;99440.16;5102459;28;19922;-67
2022/08/15 02:25:17;;;;;;;;;;;;;;;20.19;61.40;99440.81;5115040;28;20383;-67
2022/08/15 02:28:23;;;;;;;;;;;;;;;20.15;61.58;99445.66;5102409;28;20549;-67
2022/08/15 02:31:27;;;;;;;;;;;;;;;20.15;61.09;99445.66;5102448;28;19937;-68
2022/08/15 02:34:34;;;;;;;;;;;;;;;20.34;60.69;99451.59;5115056;28;20021;-67
2022/08/15 02:37:37;;;;;;;;;;;;;;;20.33;60.59;99447.28;5102000;28;19964;-68
2022/08/15 02:40:42;;;;;;;;;;;;;;;20.17;62.05;99454.28;5101914;28;19919;-68
2022/08/15 02:43:47;;;;;;;;;;;;;;;20.20;62.02;99453.94;5101576;28;19922;-68
2022/08/15 02:46:52;;;;;;;;;;;;;;;19.98;62.84;99462.59;5101889;28;19923;-68
2022/08/15 02:49:57;;;;;;;;;;;;;;;20.07;62.39;99450.97;5101905;28;19920;-68
2022/08/15 02:53:11;;;;;;;;;;;;;;;20.16;62.37;99452.59;5101504;28;20049;-68
2022/08/15 02:56:16;;;;;;;;;;;;;;;20.08;63.24;99452.63;5114549;28;19918;-68
2022/08/15 02:59:20;;;;;;;;;;;;;;;19.93;64.19;99449.00;5114445;28;20003;-68
2022/08/15 03:02:25;;;;;;;;;;;;;;;19.93;64.61;99452.47;5101596;28;19923;-68
2022/08/15 03:05:29;;;;;;;;;;;;;;;19.91;64.75;99453.63;5101436;28;19919;-68
2022/08/15 03:08:33;;;;;;;;;;;;;;;19.91;64.85;99458.94;5101277;28;19918;-68
2022/08/15 03:11:38;;;;;;;;;;;;;;;19.88;64.47;99459.28;5101347;28;19918;-68
2022/08/15 03:14:43;;;;;;;;;;;;;;;20.08;63.49;99455.28;5089130;28;19980;-68
2022/08/15 03:17:49;;;;;;;;;;;;;;;20.08;63.77;99455.28;5090933;27;20268;-68
2022/08/15 03:20:52;;;;;;;;;;;;;;;19.84;64.76;99452.63;5113209;28;19919;-68
2022/08/15 03:24:00;;;;;;;;;;;;;;;19.86;64.74;99451.47;5080169;28;19922;-68
2022/08/15 03:27:04;;;;;;;;;;;;;;;19.94;63.69;99450.63;5088005;28;19923;-68
2022/08/15 03:30:11;;;;;;;;;;;;;;;19.88;63.65;99460.13;5100753;28;19938;-68
2022/08/15 03:33:15;;;;;;;;;;;;;;;20.02;62.52;99463.09;5100702;28;20333;-68
2022/08/15 03:36:20;;;;;;;;;;;;;;;19.92;63.47;99465.91;5080085;28;19919;-68
2022/08/15 03:39:23;;;;;;;;;;;;;;;19.74;64.07;99469.53;5079985;28;19919;-68
2022/08/15 03:42:27;;;;;;;;;;;;;;;19.65;64.71;99478.47;5092590;28;20017;-68
2022/08/15 03:45:31;;;;;;;;;;;;;;;19.68;64.39;99478.16;5092639;28;19934;-68
2022/08/15 03:48:36;;;;;;;;;;;;;;;19.61;65.34;99478.94;5080209;28;20015;-68
2022/08/15 03:51:43;;;;;;;;;;;;;;;19.46;66.03;99481.41;5079897;28;19918;-68
2022/08/15 03:54:50;;;;;;;;;;;;;;;19.44;65.67;99494.00;5080090;28;19919;-68
2022/08/15 03:57:57;;;;;;;;;;;;;;;19.44;65.88;99496.66;5092513;28;20293;-68
2022/08/15 04:01:01;;;;;;;;;;;;;;;19.32;66.66;99498.78;5092794;28;19954;-68
2022/08/15 04:04:10;;;;;;;;;;;;;;;19.42;66.47;99501.28;5079345;28;19927;-67
2022/08/15 04:07:21;;;;;;;;;;;;;;;19.50;66.50;99493.34;5091441;28;20010;-68
2022/08/15 04:10:24;;;;;;;;;;;;;;;19.52;66.20;99497.47;5090288;27;19961;-67
2022/08/15 04:13:28;;;;;;;;;;;;;;;19.51;66.07;99484.41;5120684;27;19918;-68
2022/08/15 04:16:32;;;;;;;;;;;;;;;19.46;65.75;99484.06;4750527;27;9999749;-68
2022/08/15 04:19:36;;;;;;;;;;;;;;;19.47;65.62;99477.78;5076211;28;19922;-68
2022/08/15 04:22:42;;;;;;;;;;;;;;;19.63;65.47;99488.41;5076223;28;19926;-68
2022/08/15 04:25:47;;;;;;;;;;;;;;;19.59;66.05;99495.03;5076334;28;19999;-68
2022/08/15 04:28:51;;;;;;;;;;;;;;;19.63;65.98;99498.19;5093521;28;19922;-68
2022/08/15 04:31:56;;;;;;;;;;;;;;;19.80;65.19;99502.53;5096300;28;20482;-65
2022/08/15 04:35:00;;;;;;;;;;;;;;;19.86;65.04;99506.38;5095992;28;19965;-66
2022/08/15 04:38:04;;;;;;;;;;;;;;;19.98;64.31;99510.34;5096340;28;19975;-66
2022/08/15 04:41:12;;;;;;;;;;;;;;;19.69;65.43;99514.31;5084869;28;20017;-66
2022/08/15 04:44:15;;;;;;;;;;;;;;;19.57;66.12;99518.22;4744495;28;9999917;-66
2022/08/15 04:47:18;;;;;;;;;;;;;;;19.84;65.36;99513.66;5096687;28;19926;-65
2022/08/15 04:50:22;;;;;;;;;;;;;;;19.83;65.10;99510.16;5095921;28;19954;-65
2022/08/15 04:53:30;;;;;;;;;;;;;;;19.69;65.73;99508.19;5112233;28;19934;-66
2022/08/15 04:56:33;;;;;;;;;;;;;;;19.68;65.62;99507.31;5099456;28;19967;-66
2022/08/15 04:59:39;;;;;;;;;;;;;;;19.38;67.45;99515.88;5097809;28;20446;-66
2022/08/15 05:03:04;;;;;;;;;;;;;;;19.28;68.03;99505.41;5097677;28;19922;-65
2022/08/15 05:06:08;;;;;;;;;;;;;;;19.27;67.66;99514.31;5097866;28;19919;-65
2022/08/15 05:09:12;;;;;;;;;;;;;;;19.48;67.45;99512.06;5097611;28;19949;-65
2022/08/15 05:12:16;;;;;;;;;;;;;;;19.87;66.50;99513.31;5099927;28;20370;-65
2022/08/15 05:15:21;;;;;;;;;;;;;;;20.00;66.15;99521.63;5100293;28;19917;-66
2022/08/15 05:18:25;;;;;;;;;;;;;;;19.86;66.82;99531.06;5102975;28;19919;-66
2022/08/15 05:21:29;;;;;;;;;;;;;;;19.87;66.80;99522.09;5114683;28;19980;-66
2022/08/15 05:24:33;;;;;;;;;;;;;;;19.90;66.92;99526.25;5103367;28;20066;-66
2022/08/15 05:27:37;;;;;;;;;;;;;;;20.10;65.97;99526.75;5103427;28;20001;-65
2022/08/15 05:30:42;;;;;;;;;;;;;;;20.19;65.04;99517.81;5103223;28;19964;-66
2022/08/15 05:33:46;;;;;;;;;;;;;;;20.39;64.03;99515.66;5115553;28;20474;-65
2022/08/15 05:36:50;;;;;;;;;;;;;;;20.29;64.64;99515.78;5102992;28;20399;-65
2022/08/15 05:39:54;;;;;;;;;;;;;;;20.32;64.86;99520.78;5115622;28;20415;-65
2022/08/15 05:43:05;;;;;;;;;;;;;;;20.30;66.30;99516.66;5102843;28;19976;-65
2022/08/15 05:46:23;;;;;;;;;;;;;;;20.38;65.22;99529.91;5102715;28;19938;-65
2022/08/15 05:49:39;;;;;;;;;;;;;;;20.36;64.72;99523.94;5115602;28;19919;-65
2022/08/15 05:52:51;;;;;;;;;;;;;;;20.45;63.11;99525.56;5102846;28;20341;-65
2022/08/15 05:56:05;;;;;;;;;;;;;;;20.59;62.30;99526.75;5103014;28;20004;-65
2022/08/15 05:59:11;;;;;;;;;;;;;;;20.72;62.49;99528.88;5102710;28;19919;-65
2022/08/15 06:02:22;;;;;;;;;;;;;;;20.55;62.65;99525.41;5102389;28;20139;-65
2022/08/15 06:05:33;;;;;;;;;;;;;;;20.62;62.61;99527.25;5102699;28;20345;-65
2022/08/15 06:08:41;;;;;;;;;;;;;;;20.94;62.62;99516.72;5102746;28;20387;-66
2022/08/15 06:11:46;;;;;;;;;;;;;;;21.16;62.24;99520.44;5115665;28;19919;-66
2022/08/15 06:14:53;;;;;;;;;;;;;;;21.34;61.12;99511.19;5102555;28;19964;-65
2022/08/15 06:17:57;;;;;;;;;;;;;;;21.45;60.53;99514.50;5102269;28;19919;-65
2022/08/15 06:21:14;;;;;;;;;;;;;;;21.57;60.30;99505.97;5102721;28;19962;-70
2022/08/15 06:24:50;;;;;;;;;;;;;;;21.54;60.33;99516.94;5102616;28;20000;-62
2022/08/15 06:27:59;;;;;;;;;;;;;;;21.65;60.24;99517.53;5084787;28;20006;-62
2022/08/15 06:31:05;;;;;;;;;;;;;;;21.67;60.04;99516.38;5102685;28;20441;-64
2022/08/15 06:34:28;;;;;;;;;;;;;;;21.58;60.24;99504.94;5102496;28;19934;-63
2022/08/15 06:37:42;;;;;;;;;;;;;;;21.64;60.07;99502.59;5102409;28;19999;-63
2022/08/15 06:40:55;;;;;;;;;;;;;;;21.67;59.90;99505.72;5102409;28;20395;-64
2022/08/15 06:43:59;;;;;;;;;;;;;;;21.72;59.85;99505.19;5114499;28;19923;-62
2022/08/15 06:47:12;;;;;;;;;;;;;;;21.75;59.73;99507.50;5108180;28;19926;-64
2022/08/15 06:50:20;;;;;;;;;;;;;;;21.66;59.92;99497.91;5093943;28;19935;-63
2022/08/15 06:53:35;;;;;;;;;;;;;;;21.65;59.76;99513.03;5119247;27;20014;-63
2022/08/15 06:56:46;;;;;;;;;;;;;;;21.68;59.67;99511.88;5121880;27;20402;-63
2022/08/15 07:00:14;;;;;;;;;;;;;;;21.78;59.08;99520.44;5082441;28;19919;-62
2022/08/15 07:03:30;;;;;;;;;;;;;;;21.82;59.20;99503.09;5081326;28;19965;-63
2022/08/15 07:06:41;;;;;;;;;;;;;;;21.97;58.53;99508.50;5121858;27;19964;-63
2022/08/15 07:10:04;;;;;;;;;;;;;;;21.90;58.47;99511.03;5121613;27;20391;-64
2022/08/15 07:13:15;;;;;;;;;;;;;;;21.91;58.31;99523.34;5121827;27;19918;-62
2022/08/15 07:16:22;;;;;;;;;;;;;;;21.96;57.99;99514.84;5121782;27;19964;-62
2022/08/15 07:19:26;;;;;;;;;;;;;;;22.10;57.77;99524.69;5121677;27;19918;-62
2022/08/15 07:22:40;;;;;;;;;;;;;;;22.16;57.22;99520.53;5121809;27;20387;-63
2022/08/15 07:25:47;;;;;;;;;;;;;;;22.00;57.68;99522.28;5121884;27;19919;-63
2022/08/15 07:28:51;;;;;;;;;;;;;;;22.00;57.70;99516.13;5121547;27;19918;-63
2022/08/15 07:31:59;;;;;;;;;;;;;;;22.11;57.90;99518.34;5121516;27;19922;-65
2022/08/15 07:35:16;;;;;;;;;;;;;;;21.97;57.67;99511.97;5121834;27;19999;-65
2022/08/15 07:38:28;;;;;;;;;;;;;;;21.98;57.59;99513.63;5120830;27;19918;-70
2022/08/15 07:41:40;;;;;;;;;;;;;;;22.03;57.37;99515.78;5121185;27;19963;-71
2022/08/15 07:44:52;;;;;;;;;;;;;;;22.19;56.67;99514.84;5121321;27;19965;-71
2022/08/15 07:48:01;;;;;;;;;;;;;;;22.22;56.52;99517.16;5121306;27;19977;-70
2022/08/15 07:51:07;;;;;;;;;;;;;;;22.34;55.60;99521.03;5134138;27;19995;-70
2022/08/15 07:54:24;;;;;;;;;;;;;;;22.28;55.51;99527.06;5121210;27;19918;-77
2022/08/15 07:57:27;;;;;;;;;;;;;;;22.22;55.69;99520.63;5121161;27;19918;-76
2022/08/15 08:00:34;;;;;;;;;;;;;;;22.27;55.46;99528.06;5133664;27;19969;-79
2022/08/15 08:03:40;;;;;;;;;;;;;;;22.46;54.78;99527.59;5120913;27;19938;-83
2022/08/15 08:06:50;;;;;;;;;;;;;;;22.39;54.59;99529.28;5120685;27;19918;-73
2022/08/15 08:09:59;;;;;;;;;;;;;;;22.59;54.07;99537.63;5120939;27;19963;-66
2022/08/15 08:13:06;;;;;;;;;;;;;;;22.49;54.16;99540.53;5120825;27;19966;-66
2022/08/15 08:16:13;;;;;;;;;;;;;;;22.43;54.18;99538.59;5120998;27;20283;-67
2022/08/15 08:19:49;;;;;;;;;;;;;;;22.52;53.99;99532.16;5120864;27;19918;-67
2022/08/15 08:23:02;;;;;;;;;;;;;;;22.63;54.39;99522.09;5103036;27;20284;-68
2022/08/15 08:26:08;;;;;;;;;;;;;;;22.59;54.44;99536.75;5120753;27;19934;-66
2022/08/15 08:29:22;;;;;;;;;;;;;;;22.47;55.45;99531.06;5133406;27;19949;-65
2022/08/15 08:32:56;;;;;;;;;;;;;;;22.43;56.12;99541.25;5108281;27;19964;-65
2022/08/15 08:36:09;;;;;;;;;;;;;;;22.39;56.57;99553.25;5125499;27;19956;-64
2022/08/15 08:39:24;;;;;;;;;;;;;;;22.37;56.88;99552.63;5133371;28;19919;-65
2022/08/15 08:42:35;;;;;;;;;;;;;;;22.16;57.47;99555.13;5133032;28;19921;-65
2022/08/15 08:45:44;;;;;;;;;;;;;;;22.31;57.18;99561.34;5132839;28;19989;-66
2022/08/15 08:48:55;;;;;;;;;;;;;;;22.08;57.60;99560.47;5133098;27;19922;-65
2022/08/15 08:52:16;;;;;;;;;;;;;;;22.09;57.65;99568.31;5124752;27;19918;-65
2022/08/15 08:55:26;;;;;;;;;;;;;;;21.96;57.87;99579.53;5137192;27;19918;-65
2022/08/15 08:58:40;;;;;;;;;;;;;;;21.90;58.00;99585.56;5137213;27;19917;-65
2022/08/15 09:01:45;;;;;;;;;;;;;;;21.80;58.37;99584.97;5137817;27;19933;-65
2022/08/15 09:04:54;;;;;;;;;;;;;;;21.67;58.84;99595.34;5137203;27;19970;-65
2022/08/15 09:08:04;;;;;;;;;;;;;;;21.98;58.11;99582.81;5124937;27;19949;-66
2022/08/15 09:11:19;;;;;;;;;;;;;;;22.10;57.79;99585.09;5137175;27;19917;-66
2022/08/15 09:14:23;;;;;;;;;;;;;;;21.90;58.28;99601.53;5137434;27;20324;-66
2022/08/15 09:17:37;;;;;;;;;;;;;;;22.12;57.87;99588.41;5137135;27;19980;-66
2022/08/15 09:20:46;;;;;;;;;;;;;;;22.26;57.34;99593.00;5137287;27;19918;-64
2022/08/15 09:23:50;;;;;;;;;;;;;;;22.23;56.91;99588.84;5136568;27;20327;-65
2022/08/15 09:27:18;;;;;;;;;;;;;;;22.37;56.73;99597.91;5136790;27;19918;-65
2022/08/15 09:30:26;;;;;;;;;;;;;;;22.52;56.07;99606.75;5136679;27;19918;-65
2022/08/15 09:33:43;;;;;;;;;;;;;;;22.45;56.07;99600.50;5136451;27;19961;-65
2022/08/15 09:37:01;;;;;;;;;;;;;;;22.46;56.50;99602.16;5136848;27;20283;-65
2022/08/15 09:40:05;;;;;;;;;;;;;;;22.27;56.70;99602.63;5136510;27;19983;-65
2022/08/15 09:43:27;;;;;;;;;;;;;;;22.08;57.46;99625.22;5136442;27;19988;-68
2022/08/15 09:46:30;;;;;;;;;;;;;;;21.77;58.53;99620.72;5136055;27;19922;-62
2022/08/15 09:49:40;;;;;;;;;;;;;;;21.92;58.47;99618.16;5136125;27;19918;-66
2022/08/15 09:52:46;;;;;;;;;;;;;;;22.03;58.19;99625.72;5136086;27;19934;-67
2022/08/15 09:55:49;;;;;;;;;;;;;;;21.92;58.88;99620.81;5136339;27;19942;-66
2022/08/15 09:58:57;;;;;;;;;;;;;;;21.62;59.40;99626.97;5136035;27;20013;-66
2022/08/15 10:02:20;;;;;;;;;;;;;;;21.95;58.53;99631.13;5135218;27;19918;-66
2022/08/15 10:05:50;;;;;;;;;;;;;;;21.80;58.85;99632.88;5135362;27;20337;-66
2022/08/15 10:08:53;;;;;;;;;;;;;;;21.74;59.07;99623.75;5128338;27;20291;-65
2022/08/15 10:12:06;;;;;;;;;;;;;;;22.00;58.25;99623.41;5135864;27;20013;-65
2022/08/15 10:15:25;;;;;;;;;;;;;;;22.26;57.80;99623.09;5135653;27;20284;-66
2022/08/15 10:18:38;;;;;;;;;;;;;;;22.13;58.48;99622.00;5135938;27;20018;-66
2022/08/15 10:21:44;;;;;;;;;;;;;;;21.86;58.73;99621.53;5135624;27;19918;-66
2022/08/15 10:25:07;;;;;;;;;;;;;;;22.05;58.41;99615.75;5135451;27;19922;-66
2022/08/15 10:28:10;;;;;;;;;;;;;;;22.00;58.76;99618.09;5135527;27;19918;-67
2022/08/15 10:31:14;;;;;;;;;;;;;;;22.14;58.44;99623.66;5122939;27;19995;-71
2022/08/15 10:34:27;;;;;;;;;;;;;;;22.07;58.82;99628.88;5135775;27;20045;-66
2022/08/15 10:37:33;;;;;;;;;;;;;;;22.31;58.05;99627.91;5135232;27;19971;-67
2022/08/15 10:40:53;;;;;;;;;;;;;;;22.47;57.60;99625.13;5135601;27;19918;-66
2022/08/15 10:44:20;;;;;;;;;;;;;;;22.50;57.65;99632.75;5135107;27;19959;-66
2022/08/15 10:47:34;;;;;;;;;;;;;;;22.68;56.92;99629.75;5135313;27;19923;-64
2022/08/15 10:50:56;;;;;;;;;;;;;;;23.07;55.77;99631.44;5135320;27;19963;-66
2022/08/15 10:54:09;;;;;;;;;;;;;;;22.86;56.57;99640.09;5135332;27;20116;-66
2022/08/15 10:57:16;;;;;;;;;;;;;;;22.70;57.15;99634.91;5135103;27;19918;-66
2022/08/15 11:00:34;;;;;;;;;;;;;;;22.83;56.48;99627.13;5133144;27;19930;-65
2022/08/15 11:03:40;;;;;;;;;;;;;;;22.93;55.93;99630.38;5133609;27;19922;-65
2022/08/15 11:06:48;;;;;;;;;;;;;;;22.88;56.89;99631.94;5133484;27;19919;-64
2022/08/15 11:09:54;;;;;;;;;;;;;;;22.79;56.86;99633.84;5134069;27;19964;-65
2022/08/15 11:13:06;;;;;;;;;;;;;;;22.91;56.35;99632.41;5132625;27;19956;-65
2022/08/15 11:16:16;;;;;;;;;;;;;;;22.58;57.45;99636.34;5134660;27;19922;-65
2022/08/15 11:19:23;;;;;;;;;;;;;;;22.29;58.41;99636.06;5134519;27;20294;-67
2022/08/15 11:22:37;;;;;;;;;;;;;;;22.73;57.00;99639.88;5134198;27;20448;-65
2022/08/15 11:25:41;;;;;;;;;;;;;;;22.93;56.13;99650.84;5133121;27;19934;-66
2022/08/15 11:28:44;;;;;;;;;;;;;;;22.50;57.39;99650.59;5133225;27;19918;-65
2022/08/15 11:31:47;;;;;;;;;;;;;;;22.49;57.36;99655.09;5133951;27;19977;-64
2022/08/15 11:34:51;;;;;;;;;;;;;;;22.41;57.55;99647.13;5134018;27;19956;-65
2022/08/15 11:37:56;;;;;;;;;;;;;;;22.42;57.13;99648.78;5133382;27;20391;-64
2022/08/15 11:41:00;;;;;;;;;;;;;;;22.64;56.74;99651.63;5132388;27;19919;-65
2022/08/15 11:44:06;;;;;;;;;;;;;;;22.75;56.13;99643.22;5131777;27;19986;-65
2022/08/15 11:47:16;;;;;;;;;;;;;;;22.60;56.12;99647.66;5132194;27;19922;-66
2022/08/15 11:50:31;;;;;;;;;;;;;;;22.70;55.97;99650.91;5132315;27;20357;-66
2022/08/15 11:53:39;;;;;;;;;;;;;;;22.77;56.24;99641.19;5132066;27;19938;-66
2022/08/15 11:56:44;;;;;;;;;;;;;;;23.05;54.92;99653.94;5133237;27;20281;-66
2022/08/15 12:00:04;;;;;;;;;;;;;;;23.11;54.57;99650.56;5133605;27;19919;-71
2022/08/15 12:03:22;;;;;;;;;;;;;;;23.62;53.83;99650.66;5131766;27;20573;-69
2022/08/15 12:06:27;;;;;;;;;;;;;;;23.53;54.08;99641.06;5132926;27;19930;-69
2022/08/15 12:09:31;;;;;;;;;;;;;;;23.83;52.75;99642.69;5133579;27;20281;-71
2022/08/15 12:12:37;;;;;;;;;;;;;;;23.80;53.41;99632.44;5133412;27;19964;-69
2022/08/15 12:15:41;;;;;;;;;;;;;;;24.05;52.78;99624.06;5119975;27;20329;-69
2022/08/15 12:18:46;;;;;;;;;;;;;;;24.04;52.22;99633.09;5132677;27;19918;-71
2022/08/15 12:21:50;;;;;;;;;;;;;;;24.04;52.73;99633.09;5132133;27;19963;-69
2022/08/15 12:24:53;;;;;;;;;;;;;;;24.49;51.97;99626.56;5132581;27;19975;-64
2022/08/15 12:27:57;;;;;;;;;;;;;;;24.41;51.09;99625.84;5132926;27;20006;-66
2022/08/15 12:30:59;;;;;;;;;;;;;;;24.26;51.23;99626.75;5109896;27;20375;-67
2022/08/15 12:34:10;;;;;;;;;;;;;;;25.04;49.86;99629.44;5105422;28;19923;-65
2022/08/15 12:37:16;;;;;;;;;;;;;;;25.17;49.47;99612.69;5109162;28;19938;-66
2022/08/15 12:40:45;;;;;;;;;;;;;;;24.74;49.94;99621.63;5108574;28;20418;-67
2022/08/15 12:43:55;;;;;;;;;;;;;;;25.57;48.73;99611.03;5109805;28;19922;-66
2022/08/15 12:47:01;;;;;;;;;;;;;;;24.52;51.09;99620.84;5116185;28;19922;-67
2022/08/15 12:50:06;;;;;;;;;;;;;;;24.04;51.67;99622.41;5097611;28;20434;-68
2022/08/15 12:53:14;;;;;;;;;;;;;;;24.27;50.42;99606.19;5073432;28;19919;-68
2022/08/15 12:56:21;;;;;;;;;;;;;;;24.75;49.54;99615.25;5108457;28;20061;-73
2022/08/15 12:59:32;;;;;;;;;;;;;;;24.68;49.15;99619.72;5096575;28;19919;-69
2022/08/15 13:02:37;;;;;;;;;;;;;;;24.95;47.93;99604.72;5108034;28;19972;-68
2022/08/15 13:05:43;;;;;;;;;;;;;;;24.46;48.51;99610.09;5109400;28;20456;-69
2022/08/15 13:08:48;;;;;;;;;;;;;;;24.09;48.84;99614.63;5096363;28;20022;-68
2022/08/15 13:11:55;;;;;;;;;;;;;;;24.03;49.28;99612.75;5096419;28;19934;-67
2022/08/15 13:15:11;;;;;;;;;;;;;;;24.04;48.96;99607.22;5109022;28;19972;-67
2022/08/15 13:18:19;;;;;;;;;;;;;;;24.02;49.08;99611.06;5108828;28;19922;-67
2022/08/15 13:24:47;;;;;;;;;;;;;;;24.00;49.25;99621.13;5108337;28;19938;-69
2022/08/15 13:27:50;;;;;;;;;;;;;;;23.82;50.32;99614.34;5108143;28;19919;-69
2022/08/15 13:30:54;;;;;;;;;;;;;;;23.81;49.98;99617.22;5109407;28;19966;-67
2022/08/15 13:33:58;;;;;;;;;;;;;;;23.89;50.03;99598.41;5109297;28;20296;-68
2022/08/15 13:37:02;;;;;;;;;;;;;;;24.05;49.62;99608.03;5110672;28;20614;-68
2022/08/15 13:40:07;;;;;;;;;;;;;;;24.01;49.48;99601.41;5111362;28;19919;-69
2022/08/15 13:43:10;;;;;;;;;;;;;;;24.55;48.45;99595.59;5110594;28;19930;-67
2022/08/15 13:46:14;;;;;;;;;;;;;;;24.41;49.11;99593.78;5110486;28;19941;-67
2022/08/15 13:49:21;;;;;;;;;;;;;;;24.82;47.79;99597.44;5110688;28;19918;-68
2022/08/15 13:52:24;;;;;;;;;;;;;;;24.90;48.17;99588.44;5111095;28;20068;-67
2022/08/15 13:55:28;;;;;;;;;;;;;;;25.35;47.16;99577.38;5112593;28;19918;-68
2022/08/15 13:58:31;;;;;;;;;;;;;;;25.50;46.77;99578.06;5112509;28;19959;-69
2022/08/15 14:01:35;;;;;;;;;;;;;;;25.17;46.71;99580.59;5112555;27;20275;-69
2022/08/15 14:04:42;;;;;;;;;;;;;;;25.26;46.61;99574.88;5091339;28;20557;-69
2022/08/15 14:07:46;;;;;;;;;;;;;;;28.57;39.11;99562.97;5091981;28;19923;-70
2022/08/15 14:10:51;;;;;;;;;;;;;;;31.19;34.03;99554.25;5092509;28;19969;-69
2022/08/15 14:13:54;;;;;;;;;;;;;;;33.47;29.59;99545.75;5098102;27;20290;-70
2022/08/15 14:16:57;;;;;;;;;;;;;;;34.54;27.75;99543.25;5121732;27;20337;-68
2022/08/15 14:20:01;;;;;;;;;;;;;;;34.74;26.59;99526.25;5124004;27;19919;-69
2022/08/15 14:23:04;;;;;;;;;;;;;;;36.16;24.66;99525.88;5132732;27;19922;-68
2022/08/15 14:26:11;;;;;;;;;;;;;;;34.21;26.94;99520.75;5132088;27;20574;-69
2022/08/15 14:29:27;;;;;;;;;;;;;;;34.63;26.28;99517.25;5097487;28;20370;-70
2022/08/15 14:32:31;;;;;;;;;;;;;;;35.53;25.52;99509.75;5111861;28;19919;-69
2022/08/15 14:35:35;;;;;;;;;;;;;;;30.79;32.16;99519.97;5111324;28;19915;-68
2022/08/15 14:38:38;;;;;;;;;;;;;;;33.90;27.34;99511.53;5111682;28;19962;-68
2022/08/15 14:41:53;;;;;;;;;;;;;;;36.41;24.60;99503.25;5111560;28;19961;-65
2022/08/15 14:44:55;;;;;;;;;;;;;;;33.75;27.41;99523.03;5110528;28;19947;-68
2022/08/15 14:47:59;;;;;;;;;;;;;;;31.06;30.82;99514.03;5113965;27;19917;-67
2022/08/15 14:51:05;;;;;;;;;;;;;;;31.39;31.76;99515.22;5114113;27;20469;-66
2022/08/15 14:54:10;;;;;;;;;;;;;;;29.98;32.84;99528.78;5123681;27;20276;-66
2022/08/15 14:57:19;;;;;;;;;;;;;;;28.16;36.23;99535.56;5117928;27;20428;-68
2022/08/15 15:00:23;;;;;;;;;;;;;;;27.76;37.68;99541.19;5126530;27;20402;-69
2022/08/15 15:03:29;;;;;;;;;;;;;;;32.38;29.88;99531.81;5111513;27;20681;-67
2022/08/15 15:06:32;;;;;;;;;;;;;;;33.86;27.88;99521.25;5094027;27;19930;-68
2022/08/15 15:09:36;;;;;;;;;;;;;;;33.22;28.29;99524.63;5113356;27;19934;-67
2022/08/15 15:12:40;;;;;;;;;;;;;;;34.91;25.94;99530.44;5120851;27;19984;-69
2022/08/15 15:15:46;;;;;;;;;;;;;;;34.24;26.82;99509.38;5106145;27;20031;-68
2022/08/15 15:18:50;;;;;;;;;;;;;;;33.48;28.00;99515.69;5120592;27;19919;-68
2022/08/15 15:21:53;;;;;;;;;;;;;;;34.62;26.47;99526.47;5115103;27;19919;-68
2022/08/15 15:24:57;;;;;;;;;;;;;;;29.05;34.85;99524.63;5126278;27;19966;-68
2022/08/15 15:28:03;;;;;;;;;;;;;;;28.43;36.10;99528.13;5107904;28;19935;-72
2022/08/15 15:31:10;;;;;;;;;;;;;;;29.22;35.01;99525.66;5110090;28;19965;-68
2022/08/15 15:34:15;;;;;;;;;;;;;;;28.77;36.14;99528.63;5110610;28;20433;-67
2022/08/15 15:37:18;;;;;;;;;;;;;;;31.47;32.16;99536.47;5110046;28;19919;-69
2022/08/15 15:40:23;;;;;;;;;;;;;;;31.47;31.85;99531.06;5109105;28;19980;-71
2022/08/15 15:43:26;;;;;;;;;;;;;;;33.07;29.81;99517.94;5110586;28;19976;-67
2022/08/15 15:46:30;;;;;;;;;;;;;;;31.33;32.08;99529.66;5110436;28;19976;-67
2022/08/15 15:49:36;;;;;;;;;;;;;;;31.12;32.17;99529.28;5109690;28;20277;-71
2022/08/15 15:52:45;;;;;;;;;;;;;;;32.03;30.60;99513.16;5109730;28;19918;-69
2022/08/15 15:56:13;;;;;;;;;;;;;;;31.31;32.11;99516.41;5108985;28;19964;-68
2022/08/15 15:59:44;;;;;;;;;;;;;;;31.95;31.09;99519.81;5092250;27;20066;-68
2022/08/15 16:02:50;;;;;;;;;;;;;;;31.76;30.82;99512.13;5110268;28;19967;-68
2022/08/15 16:05:55;;;;;;;;;;;;;;;32.38;29.94;99504.78;5110012;28;19922;-69
2022/08/15 16:08:58;;;;;;;;;;;;;;;33.34;28.58;99492.78;5108929;28;19964;-69
2022/08/15 16:12:05;;;;;;;;;;;;;;;31.75;30.83;99500.50;5107764;28;19922;-70
2022/08/15 16:15:22;;;;;;;;;;;;;;;30.07;32.61;99505.81;5105096;28;20045;-69
2022/08/15 16:18:30;;;;;;;;;;;;;;;28.68;34.67;99506.56;5109232;28;19981;-68
2022/08/15 16:21:33;;;;;;;;;;;;;;;28.70;34.93;99507.16;5109190;28;19985;-69
2022/08/15 16:24:44;;;;;;;;;;;;;;;27.85;36.09;99498.78;5108431;28;19922;-68